sensor_id;sensor_type;location;lat;lon;timestamp;pressure;altitude;pressure_sealevel;temperature;humidity
43741;BME280;29352;48.708;9.290;2023-10-19T00:02:05;96277.91;;;6.08;78.46
43741;BME280;29352;48.708;9.290;2023-10-19T00:04:32;96273.69;;;5.89;79.03
43741;BME280;29352;48.708;9.290;2023-10-19T00:07:02;96271.47;;;5.74;79.49
43741;BME280;29352;48.708;9.290;2023-10-19T00:09:30;96278.78;;;6.02;79.14
43741;BME280;29352;48.708;9.290;2023-10-19T00:12:02;96283.09;;;6.15;78.59
43741;BME280;29352;48.708;9.290;2023-10-19T00:14:29;96268.63;;;5.87;80.12
43741;BME280;29352;48.708;9.290;2023-10-19T00:16:57;96263.09;;;6.90;77.00
43741;BME280;29352;48.708;9.290;2023-10-19T00:19:26;96265.41;;;6.98;75.83
43741;BME280;29352;48.708;9.290;2023-10-19T00:21:55;96267.50;;;6.96;76.34
43741;BME280;29352;48.708;9.290;2023-10-19T00:24:27;96263.88;;;7.54;74.54
43741;BME280;29352;48.708;9.290;2023-10-19T00:26:53;96260.91;;;6.98;76.31
43741;BME280;29352;48.708;9.290;2023-10-19T00:29:20;96261.28;;;6.78;76.63
43741;BME280;29352;48.708;9.290;2023-10-19T00:31:59;96261.63;;;7.34;75.09
43741;BME280;29352;48.708;9.290;2023-10-19T00:34:26;96260.25;;;7.43;75.73
43741;BME280;29352;48.708;9.290;2023-10-19T00:36:54;96261.00;;;7.55;75.10
43741;BME280;29352;48.708;9.290;2023-10-19T00:39:32;96259.84;;;7.92;73.70
43741;BME280;29352;48.708;9.290;2023-10-19T00:42:08;96258.38;;;7.84;74.36
43741;BME280;29352;48.708;9.290;2023-10-19T00:44:33;96251.16;;;8.30;72.61
43741;BME280;29352;48.708;9.290;2023-10-19T00:47:09;96240.13;;;8.72;71.77
43741;BME280;29352;48.708;9.290;2023-10-19T00:49:39;96233.91;;;8.49;72.08
43741;BME280;29352;48.708;9.290;2023-10-19T00:52:06;96237.88;;;8.47;71.39
43741;BME280;29352;48.708;9.290;2023-10-19T00:54:51;96228.59;;;7.99;73.67
43741;BME280;29352;48.708;9.290;2023-10-19T00:57:19;96245.28;;;8.28;73.30
43741;BME280;29352;48.708;9.290;2023-10-19T00:59:47;96247.53;;;7.74;74.59
43741;BME280;29352;48.708;9.290;2023-10-19T01:02:20;96242.84;;;7.35;76.09
43741;BME280;29352;48.708;9.290;2023-10-19T01:04:51;96245.34;;;7.71;75.14
43741;BME280;29352;48.708;9.290;2023-10-19T01:07:25;96250.66;;;7.99;74.37
43741;BME280;29352;48.708;9.290;2023-10-19T01:09:57;96234.06;;;7.92;74.60
43741;BME280;29352;48.708;9.290;2023-10-19T01:12:26;96213.22;;;7.84;74.35
43741;BME280;29352;48.708;9.290;2023-10-19T01:17:49;96199.91;;;6.98;76.86
43741;BME280;29352;48.708;9.290;2023-10-19T01:20:23;96200.75;;;6.52;78.56
43741;BME280;29352;48.708;9.290;2023-10-19T01:22:58;96204.22;;;6.29;79.67
43741;BME280;29352;48.708;9.290;2023-10-19T01:25:50;96198.19;;;6.92;78.01
43741;BME280;29352;48.708;9.290;2023-10-19T01:28:20;96196.59;;;7.60;75.82
43741;BME280;29352;48.708;9.290;2023-10-19T01:30:50;96187.97;;;7.70;75.73
43741;BME280;29352;48.708;9.290;2023-10-19T01:33:17;96172.09;;;8.03;74.74
43741;BME280;29352;48.708;9.290;2023-10-19T01:35:44;96164.63;;;7.55;75.24
43741;BME280;29352;48.708;9.290;2023-10-19T01:38:29;96160.34;;;7.08;77.36
43741;BME280;29352;48.708;9.290;2023-10-19T01:41:02;96158.22;;;7.68;76.21
43741;BME280;29352;48.708;9.290;2023-10-19T01:43:49;96155.88;;;7.71;76.46
43741;BME280;29352;48.708;9.290;2023-10-19T01:46:19;96139.56;;;7.96;75.77
43741;BME280;29352;48.708;9.290;2023-10-19T01:48:48;96139.03;;;7.77;76.41
43741;BME280;29352;48.708;9.290;2023-10-19T01:51:19;96129.47;;;7.65;76.25
43741;BME280;29352;48.708;9.290;2023-10-19T01:53:46;96116.44;;;8.52;73.82
43741;BME280;29352;48.708;9.290;2023-10-19T01:56:16;96116.53;;;8.19;75.08
43741;BME280;29352;48.708;9.290;2023-10-19T01:58:44;96131.38;;;7.81;75.75
43741;BME280;29352;48.708;9.290;2023-10-19T02:01:12;96133.03;;;7.70;76.24
43741;BME280;29352;48.708;9.290;2023-10-19T02:03:43;96135.00;;;7.92;75.00
43741;BME280;29352;48.708;9.290;2023-10-19T02:06:12;96137.00;;;8.01;74.90
43741;BME280;29352;48.708;9.290;2023-10-19T02:08:48;96134.03;;;7.81;75.22
43741;BME280;29352;48.708;9.290;2023-10-19T02:11:20;96135.25;;;7.45;76.88
43741;BME280;29352;48.708;9.290;2023-10-19T02:13:48;96137.63;;;8.25;73.35
43741;BME280;29352;48.708;9.290;2023-10-19T02:16:16;96120.97;;;8.52;72.93
43741;BME280;29352;48.708;9.290;2023-10-19T02:18:42;96123.19;;;8.21;73.86
43741;BME280;29352;48.708;9.290;2023-10-19T02:21:09;96106.56;;;8.48;73.39
43741;BME280;29352;48.708;9.290;2023-10-19T02:23:38;96098.44;;;8.38;72.89
43741;BME280;29352;48.708;9.290;2023-10-19T02:26:05;96114.97;;;8.40;72.78
43741;BME280;29352;48.708;9.290;2023-10-19T02:28:31;96109.03;;;8.54;72.38
43741;BME280;29352;48.708;9.290;2023-10-19T02:31:00;96107.75;;;7.51;76.10
43741;BME280;29352;48.708;9.290;2023-10-19T02:33:37;96104.91;;;8.25;73.95
43741;BME280;29352;48.708;9.290;2023-10-19T02:36:03;96103.00;;;8.20;73.60
43741;BME280;29352;48.708;9.290;2023-10-19T02:38:29;96097.56;;;8.32;73.59
43741;BME280;29352;48.708;9.290;2023-10-19T02:40:55;96100.94;;;8.66;72.64
43741;BME280;29352;48.708;9.290;2023-10-19T02:43:21;96109.22;;;8.70;72.25
43741;BME280;29352;48.708;9.290;2023-10-19T02:45:49;96104.47;;;9.16;71.39
43741;BME280;29352;48.708;9.290;2023-10-19T02:48:14;96106.19;;;8.39;72.68
43741;BME280;29352;48.708;9.290;2023-10-19T02:50:41;96100.50;;;8.96;71.66
43741;BME280;29352;48.708;9.290;2023-10-19T02:53:06;96094.97;;;8.15;73.20
43741;BME280;29352;48.708;9.290;2023-10-19T02:55:32;96096.00;;;8.14;73.72
43741;BME280;29352;48.708;9.290;2023-10-19T02:57:57;96081.22;;;8.40;72.22
43741;BME280;29352;48.708;9.290;2023-10-19T03:00:24;96081.69;;;8.37;72.72
43741;BME280;29352;48.708;9.290;2023-10-19T03:02:58;96089.66;;;8.15;72.69
43741;BME280;29352;48.708;9.290;2023-10-19T03:05:26;96092.22;;;8.71;71.99
43741;BME280;29352;48.708;9.290;2023-10-19T03:07:52;96086.63;;;8.28;71.74
43741;BME280;29352;48.708;9.290;2023-10-19T03:10:18;96096.28;;;7.79;74.98
43741;BME280;29352;48.708;9.290;2023-10-19T03:13:00;96090.78;;;8.19;73.42
43741;BME280;29352;48.708;9.290;2023-10-19T03:15:26;96089.06;;;8.96;71.63
43741;BME280;29352;48.708;9.290;2023-10-19T03:17:55;96086.97;;;8.54;71.50
43741;BME280;29352;48.708;9.290;2023-10-19T03:20:21;96087.28;;;8.58;71.86
43741;BME280;29352;48.708;9.290;2023-10-19T03:22:49;96083.19;;;8.11;72.19
43741;BME280;29352;48.708;9.290;2023-10-19T03:25:15;96081.06;;;7.91;73.07
43741;BME280;29352;48.708;9.290;2023-10-19T03:28:00;96073.50;;;7.83;72.56
43741;BME280;29352;48.708;9.290;2023-10-19T03:30:36;96075.16;;;7.39;74.23
43741;BME280;29352;48.708;9.290;2023-10-19T03:33:06;96069.44;;;6.73;76.23
43741;BME280;29352;48.708;9.290;2023-10-19T03:35:38;96071.09;;;7.02;74.85
43741;BME280;29352;48.708;9.290;2023-10-19T03:38:07;96068.09;;;7.44;73.52
43741;BME280;29352;48.708;9.290;2023-10-19T03:40:41;96067.75;;;7.24;74.64
43741;BME280;29352;48.708;9.290;2023-10-19T03:43:06;96061.88;;;7.39;73.74
43741;BME280;29352;48.708;9.290;2023-10-19T03:45:42;96055.22;;;7.36;74.72
43741;BME280;29352;48.708;9.290;2023-10-19T03:48:14;96064.50;;;6.76;74.90
43741;BME280;29352;48.708;9.290;2023-10-19T03:50:41;96055.22;;;6.50;76.48
43741;BME280;29352;48.708;9.290;2023-10-19T03:53:07;96060.22;;;7.04;75.93
43741;BME280;29352;48.708;9.290;2023-10-19T03:55:37;96048.56;;;6.88;75.75
43741;BME280;29352;48.708;9.290;2023-10-19T03:58:03;96050.41;;;7.33;74.99
43741;BME280;29352;48.708;9.290;2023-10-19T04:00:30;96051.03;;;7.40;73.90
43741;BME280;29352;48.708;9.290;2023-10-19T04:02:59;96050.47;;;7.55;74.58
43741;BME280;29352;48.708;9.290;2023-10-19T04:05:24;96037.97;;;8.28;72.39
43741;BME280;29352;48.708;9.290;2023-10-19T04:07:51;96039.31;;;7.53;72.74
43741;BME280;29352;48.708;9.290;2023-10-19T04:10:21;96030.13;;;7.94;72.45
43741;BME280;29352;48.708;9.290;2023-10-19T04:12:59;96032.03;;;7.65;72.50
43741;BME280;29352;48.708;9.290;2023-10-19T04:15:25;96029.72;;;7.52;73.10
43741;BME280;29352;48.708;9.290;2023-10-19T04:17:52;96022.25;;;7.32;73.78
43741;BME280;29352;48.708;9.290;2023-10-19T04:20:24;96016.47;;;7.18;73.95
43741;BME280;29352;48.708;9.290;2023-10-19T04:23:16;96020.31;;;7.44;73.89
43741;BME280;29352;48.708;9.290;2023-10-19T04:25:41;96008.41;;;7.47;74.16
43741;BME280;29352;48.708;9.290;2023-10-19T04:28:07;96008.75;;;7.50;73.58
43741;BME280;29352;48.708;9.290;2023-10-19T04:30:34;96004.31;;;7.22;73.24
43741;BME280;29352;48.708;9.290;2023-10-19T04:33:02;96011.31;;;7.11;73.07
43741;BME280;29352;48.708;9.290;2023-10-19T04:35:27;96017.69;;;6.82;73.28
43741;BME280;29352;48.708;9.290;2023-10-19T04:37:59;96003.72;;;7.03;72.24
43741;BME280;29352;48.708;9.290;2023-10-19T04:40:26;96016.47;;;6.61;74.18
43741;BME280;29352;48.708;9.290;2023-10-19T04:42:53;96006.72;;;7.24;72.14
43741;BME280;29352;48.708;9.290;2023-10-19T04:45:20;96007.94;;;6.30;75.52
43741;BME280;29352;48.708;9.290;2023-10-19T04:47:45;96003.00;;;6.22;77.23
43741;BME280;29352;48.708;9.290;2023-10-19T04:50:17;96013.53;;;7.03;75.04
43741;BME280;29352;48.708;9.290;2023-10-19T04:52:42;96010.34;;;7.01;74.10
43741;BME280;29352;48.708;9.290;2023-10-19T04:55:08;96007.03;;;7.10;75.04
43741;BME280;29352;48.708;9.290;2023-10-19T04:57:33;96001.56;;;7.17;74.76
43741;BME280;29352;48.708;9.290;2023-10-19T04:59:58;96000.78;;;7.50;74.31
43741;BME280;29352;48.708;9.290;2023-10-19T05:02:24;96004.06;;;6.50;76.54
43741;BME280;29352;48.708;9.290;2023-10-19T05:04:49;95999.56;;;6.50;75.95
43741;BME280;29352;48.708;9.290;2023-10-19T05:07:15;95988.88;;;7.02;75.90
43741;BME280;29352;48.708;9.290;2023-10-19T05:09:45;95996.03;;;7.19;75.04
43741;BME280;29352;48.708;9.290;2023-10-19T05:12:12;95987.16;;;7.64;73.93
43741;BME280;29352;48.708;9.290;2023-10-19T05:14:40;95993.91;;;7.88;72.49
43741;BME280;29352;48.708;9.290;2023-10-19T05:17:07;95990.22;;;7.55;73.20
43741;BME280;29352;48.708;9.290;2023-10-19T05:19:39;95984.41;;;7.75;73.12
43741;BME280;29352;48.708;9.290;2023-10-19T05:22:07;95978.88;;;7.60;74.02
43741;BME280;29352;48.708;9.290;2023-10-19T05:24:34;95987.19;;;8.02;72.20
43741;BME280;29352;48.708;9.290;2023-10-19T05:27:00;95986.72;;;7.33;73.98
43741;BME280;29352;48.708;9.290;2023-10-19T05:29:27;95992.34;;;7.53;73.49
43741;BME280;29352;48.708;9.290;2023-10-19T05:31:53;95990.91;;;8.01;72.96
43741;BME280;29352;48.708;9.290;2023-10-19T05:34:23;95995.66;;;7.99;71.49
43741;BME280;29352;48.708;9.290;2023-10-19T05:36:52;95983.47;;;7.65;72.64
43741;BME280;29352;48.708;9.290;2023-10-19T05:39:19;95985.16;;;7.71;73.82
43741;BME280;29352;48.708;9.290;2023-10-19T05:41:53;95989.31;;;7.83;71.80
43741;BME280;29352;48.708;9.290;2023-10-19T05:44:19;95988.78;;;7.81;71.72
43741;BME280;29352;48.708;9.290;2023-10-19T05:46:44;95987.72;;;7.66;71.93
43741;BME280;29352;48.708;9.290;2023-10-19T05:49:11;95993.13;;;7.37;72.82
43741;BME280;29352;48.708;9.290;2023-10-19T05:51:37;95984.28;;;7.48;72.88
43741;BME280;29352;48.708;9.290;2023-10-19T05:54:03;95993.19;;;7.42;71.93
43741;BME280;29352;48.708;9.290;2023-10-19T05:56:32;96000.91;;;6.93;73.51
43741;BME280;29352;48.708;9.290;2023-10-19T05:59:01;96004.78;;;7.02;73.43
43741;BME280;29352;48.708;9.290;2023-10-19T06:01:27;95999.53;;;7.07;73.69
43741;BME280;29352;48.708;9.290;2023-10-19T06:03:53;96002.22;;;7.58;73.74
43741;BME280;29352;48.708;9.290;2023-10-19T06:06:19;95987.66;;;7.61;73.36
43741;BME280;29352;48.708;9.290;2023-10-19T06:08:46;95996.38;;;7.39;73.86
43741;BME280;29352;48.708;9.290;2023-10-19T06:11:11;95987.44;;;8.23;72.61
43741;BME280;29352;48.708;9.290;2023-10-19T06:13:37;95996.88;;;7.92;73.56
43741;BME280;29352;48.708;9.290;2023-10-19T06:16:02;96012.25;;;7.73;73.94
43741;BME280;29352;48.708;9.290;2023-10-19T06:18:28;96006.47;;;7.76;73.41
43741;BME280;29352;48.708;9.290;2023-10-19T06:20:55;96006.13;;;7.89;72.92
43741;BME280;29352;48.708;9.290;2023-10-19T06:23:21;96004.41;;;8.00;73.24
43741;BME280;29352;48.708;9.290;2023-10-19T06:25:46;96003.38;;;8.23;72.77
43741;BME280;29352;48.708;9.290;2023-10-19T06:28:12;96002.72;;;8.60;72.51
43741;BME280;29352;48.708;9.290;2023-10-19T06:30:39;96002.59;;;9.25;71.58
43741;BME280;29352;48.708;9.290;2023-10-19T06:33:05;95994.53;;;9.90;68.83
43741;BME280;29352;48.708;9.290;2023-10-19T06:35:32;96004.28;;;9.05;70.43
43741;BME280;29352;48.708;9.290;2023-10-19T06:38:00;95998.22;;;9.46;69.37
43741;BME280;29352;48.708;9.290;2023-10-19T06:40:26;96003.22;;;8.79;71.06
43741;BME280;29352;48.708;9.290;2023-10-19T06:42:56;96003.03;;;8.63;71.81
43741;BME280;29352;48.708;9.290;2023-10-19T06:45:25;96007.03;;;9.15;70.08
43741;BME280;29352;48.708;9.290;2023-10-19T06:47:52;96005.28;;;9.63;68.71
43741;BME280;29352;48.708;9.290;2023-10-19T06:50:20;96006.31;;;9.24;69.37
43741;BME280;29352;48.708;9.290;2023-10-19T06:52:47;96010.19;;;9.12;69.38
43741;BME280;29352;48.708;9.290;2023-10-19T06:55:15;96009.41;;;8.18;72.91
43741;BME280;29352;48.708;9.290;2023-10-19T06:57:51;96008.38;;;8.41;72.11
43741;BME280;29352;48.708;9.290;2023-10-19T07:00:22;95998.34;;;8.48;72.65
43741;BME280;29352;48.708;9.290;2023-10-19T07:02:53;95987.28;;;9.11;71.16
43741;BME280;29352;48.708;9.290;2023-10-19T07:05:21;95997.22;;;8.39;72.19
43741;BME280;29352;48.708;9.290;2023-10-19T07:07:50;95994.78;;;8.16;73.41
43741;BME280;29352;48.708;9.290;2023-10-19T07:10:18;96005.00;;;7.68;74.64
43741;BME280;29352;48.708;9.290;2023-10-19T07:12:46;95989.75;;;7.97;74.60
43741;BME280;29352;48.708;9.290;2023-10-19T07:15:14;95994.91;;;7.15;75.65
43741;BME280;29352;48.708;9.290;2023-10-19T07:17:43;96005.31;;;7.72;74.83
43741;BME280;29352;48.708;9.290;2023-10-19T07:20:11;96003.00;;;7.75;74.57
43741;BME280;29352;48.708;9.290;2023-10-19T07:22:58;96000.38;;;7.97;74.06
43741;BME280;29352;48.708;9.290;2023-10-19T07:25:28;95989.41;;;8.33;73.45
43741;BME280;29352;48.708;9.290;2023-10-19T07:27:54;95995.50;;;8.55;73.22
43741;BME280;29352;48.708;9.290;2023-10-19T07:30:21;95996.69;;;7.98;74.22
43741;BME280;29352;48.708;9.290;2023-10-19T07:32:51;95997.97;;;8.62;73.18
43741;BME280;29352;48.708;9.290;2023-10-19T07:35:24;95991.97;;;8.49;72.94
43741;BME280;29352;48.708;9.290;2023-10-19T07:37:54;95985.09;;;8.26;73.07
43741;BME280;29352;48.708;9.290;2023-10-19T07:40:22;95985.16;;;8.10;74.55
43741;BME280;29352;48.708;9.290;2023-10-19T07:42:49;95981.97;;;8.79;72.81
43741;BME280;29352;48.708;9.290;2023-10-19T07:45:17;95986.59;;;8.66;73.15
43741;BME280;29352;48.708;9.290;2023-10-19T07:47:43;95972.09;;;9.76;71.00
43741;BME280;29352;48.708;9.290;2023-10-19T07:50:10;95977.53;;;8.89;74.04
43741;BME280;29352;48.708;9.290;2023-10-19T07:52:46;95970.06;;;9.18;74.28
43741;BME280;29352;48.708;9.290;2023-10-19T07:55:14;95975.69;;;9.22;73.92
43741;BME280;29352;48.708;9.290;2023-10-19T07:57:40;95971.94;;;8.91;72.90
43741;BME280;29352;48.708;9.290;2023-10-19T08:00:08;95977.78;;;9.52;73.50
43741;BME280;29352;48.708;9.290;2023-10-19T08:02:35;95969.06;;;10.09;72.76
43741;BME280;29352;48.708;9.290;2023-10-19T08:05:03;95971.91;;;10.50;73.07
43741;BME280;29352;48.708;9.290;2023-10-19T08:07:32;95970.06;;;10.66;70.79
43741;BME280;29352;48.708;9.290;2023-10-19T08:09:59;95965.06;;;11.00;71.40
43741;BME280;29352;48.708;9.290;2023-10-19T08:12:26;95961.34;;;11.17;70.80
43741;BME280;29352;48.708;9.290;2023-10-19T08:14:53;95953.88;;;11.13;68.75
43741;BME280;29352;48.708;9.290;2023-10-19T08:17:20;95954.66;;;11.14;69.82
43741;BME280;29352;48.708;9.290;2023-10-19T08:19:46;95961.59;;;11.66;68.37
43741;BME280;29352;48.708;9.290;2023-10-19T08:22:11;95955.09;;;11.98;67.91
43741;BME280;29352;48.708;9.290;2023-10-19T08:24:40;95946.81;;;11.94;67.90
43741;BME280;29352;48.708;9.290;2023-10-19T08:27:09;95953.09;;;12.34;68.85
43741;BME280;29352;48.708;9.290;2023-10-19T08:29:36;95954.53;;;11.96;69.53
43741;BME280;29352;48.708;9.290;2023-10-19T08:32:02;95951.31;;;11.99;70.20
43741;BME280;29352;48.708;9.290;2023-10-19T08:34:28;95954.25;;;13.41;66.60
43741;BME280;29352;48.708;9.290;2023-10-19T08:36:55;95945.91;;;14.25;63.06
43741;BME280;29352;48.708;9.290;2023-10-19T08:39:21;95947.50;;;14.50;63.88
43741;BME280;29352;48.708;9.290;2023-10-19T08:41:50;95955.94;;;14.38;64.18
43741;BME280;29352;48.708;9.290;2023-10-19T08:44:20;95955.88;;;12.63;66.46
43741;BME280;29352;48.708;9.290;2023-10-19T08:46:45;95945.72;;;13.68;64.09
43741;BME280;29352;48.708;9.290;2023-10-19T08:49:15;95936.94;;;14.10;63.17
43741;BME280;29352;48.708;9.290;2023-10-19T08:51:46;95941.81;;;15.08;60.84
43741;BME280;29352;48.708;9.290;2023-10-19T08:54:13;95944.72;;;14.92;61.08
43741;BME280;29352;48.708;9.290;2023-10-19T08:56:40;95953.00;;;14.15;62.25
43741;BME280;29352;48.708;9.290;2023-10-19T08:59:07;95953.91;;;13.82;63.97
43741;BME280;29352;48.708;9.290;2023-10-19T09:01:36;95954.81;;;13.72;63.35
43741;BME280;29352;48.708;9.290;2023-10-19T09:04:03;95951.63;;;14.80;62.44
43741;BME280;29352;48.708;9.290;2023-10-19T09:06:31;95946.66;;;12.85;66.03
43741;BME280;29352;48.708;9.290;2023-10-19T09:09:07;95929.22;;;13.85;64.08
43741;BME280;29352;48.708;9.290;2023-10-19T09:11:43;95938.66;;;13.48;64.29
43741;BME280;29352;48.708;9.290;2023-10-19T09:14:09;95938.69;;;13.77;65.27
43741;BME280;29352;48.708;9.290;2023-10-19T09:16:38;95936.06;;;14.63;63.19
43741;BME280;29352;48.708;9.290;2023-10-19T09:19:19;95936.84;;;14.63;62.83
43741;BME280;29352;48.708;9.290;2023-10-19T09:21:45;95938.44;;;14.22;64.00
43741;BME280;29352;48.708;9.290;2023-10-19T09:24:11;95929.19;;;14.09;62.68
43741;BME280;29352;48.708;9.290;2023-10-19T09:26:37;95939.72;;;14.24;63.34
43741;BME280;29352;48.708;9.290;2023-10-19T09:29:02;95930.53;;;14.30;63.34
43741;BME280;29352;48.708;9.290;2023-10-19T09:31:29;95924.75;;;13.99;64.00
43741;BME280;29352;48.708;9.290;2023-10-19T09:33:56;95934.34;;;14.48;62.29
43741;BME280;29352;48.708;9.290;2023-10-19T09:36:24;95927.41;;;14.23;63.01
43741;BME280;29352;48.708;9.290;2023-10-19T09:38:54;95919.66;;;14.46;62.52
43741;BME280;29352;48.708;9.290;2023-10-19T09:41:23;95910.72;;;14.50;62.94
43741;BME280;29352;48.708;9.290;2023-10-19T09:43:58;95907.94;;;14.93;61.87
43741;BME280;29352;48.708;9.290;2023-10-19T09:46:32;95909.81;;;14.36;62.77
43741;BME280;29352;48.708;9.290;2023-10-19T09:49:00;95905.34;;;14.88;62.10
43741;BME280;29352;48.708;9.290;2023-10-19T09:51:26;95909.63;;;14.08;64.54
43741;BME280;29352;48.708;9.290;2023-10-19T09:54:14;95905.94;;;14.04;65.17
43741;BME280;29352;48.708;9.290;2023-10-19T09:56:51;95904.88;;;13.52;66.41
43741;BME280;29352;48.708;9.290;2023-10-19T09:59:35;95910.00;;;13.48;66.54
43741;BME280;29352;48.708;9.290;2023-10-19T10:02:10;95908.25;;;13.34;67.01
43741;BME280;29352;48.708;9.290;2023-10-19T10:04:41;95903.69;;;13.05;68.19
43741;BME280;29352;48.708;9.290;2023-10-19T10:07:09;95910.34;;;13.42;67.38
43741;BME280;29352;48.708;9.290;2023-10-19T10:09:36;95902.06;;;13.67;66.95
43741;BME280;29352;48.708;9.290;2023-10-19T10:15:12;95902.88;;;13.63;66.61
43741;BME280;29352;48.708;9.290;2023-10-19T10:17:39;95898.91;;;13.02;67.15
43741;BME280;29352;48.708;9.290;2023-10-19T10:22:39;95899.66;;;13.37;67.18
43741;BME280;29352;48.708;9.290;2023-10-19T10:25:07;95887.03;;;13.42;66.90
43741;BME280;29352;48.708;9.290;2023-10-19T10:27:35;95891.84;;;12.33;70.04
43741;BME280;29352;48.708;9.290;2023-10-19T10:30:04;95900.13;;;13.15;68.70
43741;BME280;29352;48.708;9.290;2023-10-19T10:32:49;95894.69;;;13.78;67.32
43741;BME280;29352;48.708;9.290;2023-10-19T10:38:02;95892.78;;;13.84;66.69
43741;BME280;29352;48.708;9.290;2023-10-19T10:40:31;95883.84;;;13.88;66.99
43741;BME280;29352;48.708;9.290;2023-10-19T10:43:07;95882.50;;;13.91;65.71
43741;BME280;29352;48.708;9.290;2023-10-19T10:45:32;95882.09;;;13.79;66.68
43741;BME280;29352;48.708;9.290;2023-10-19T10:47:58;95887.44;;;13.79;65.31
43741;BME280;29352;48.708;9.290;2023-10-19T10:50:26;95888.72;;;13.57;65.82
43741;BME280;29352;48.708;9.290;2023-10-19T10:52:53;95896.72;;;12.65;68.83
43741;BME280;29352;48.708;9.290;2023-10-19T10:55:23;95889.97;;;12.38;69.50
43741;BME280;29352;48.708;9.290;2023-10-19T10:57:54;95894.69;;;11.97;70.67
43741;BME280;29352;48.708;9.290;2023-10-19T11:00:19;95895.88;;;12.35;71.82
43741;BME280;29352;48.708;9.290;2023-10-19T11:03:06;95896.50;;;13.00;68.35
43741;BME280;29352;48.708;9.290;2023-10-19T11:05:36;95890.66;;;12.54;69.41
43741;BME280;29352;48.708;9.290;2023-10-19T11:08:15;95894.72;;;12.46;69.98
43741;BME280;29352;48.708;9.290;2023-10-19T11:10:43;95896.94;;;12.73;69.62
43741;BME280;29352;48.708;9.290;2023-10-19T11:13:13;95897.88;;;12.53;69.97
43741;BME280;29352;48.708;9.290;2023-10-19T11:15:49;95894.28;;;12.68;70.38
43741;BME280;29352;48.708;9.290;2023-10-19T11:18:34;95882.38;;;14.01;67.16
43741;BME280;29352;48.708;9.290;2023-10-19T11:21:12;95884.78;;;14.22;66.62
43741;BME280;29352;48.708;9.290;2023-10-19T11:26:16;95880.44;;;14.82;64.74
43741;BME280;29352;48.708;9.290;2023-10-19T11:28:44;95885.19;;;14.10;66.49
43741;BME280;29352;48.708;9.290;2023-10-19T11:33:48;95896.75;;;13.04;72.13
43741;BME280;29352;48.708;9.290;2023-10-19T11:36:16;95898.81;;;13.12;71.45
43741;BME280;29352;48.708;9.290;2023-10-19T11:38:44;95893.44;;;12.78;71.98
43741;BME280;29352;48.708;9.290;2023-10-19T11:41:12;95878.28;;;14.04;68.22
43741;BME280;29352;48.708;9.290;2023-10-19T11:43:40;95884.59;;;13.94;68.18
43741;BME280;29352;48.708;9.290;2023-10-19T11:46:07;95883.59;;;13.61;69.07
43741;BME280;29352;48.708;9.290;2023-10-19T11:48:34;95885.47;;;13.07;71.00
43741;BME280;29352;48.708;9.290;2023-10-19T11:51:02;95880.28;;;13.21;71.29
43741;BME280;29352;48.708;9.290;2023-10-19T11:53:33;95873.19;;;13.59;70.08
43741;BME280;29352;48.708;9.290;2023-10-19T11:56:08;95861.03;;;13.91;69.30
43741;BME280;29352;48.708;9.290;2023-10-19T11:58:35;95870.00;;;13.81;69.44
43741;BME280;29352;48.708;9.290;2023-10-19T12:01:04;95867.31;;;13.81;69.83
43741;BME280;29352;48.708;9.290;2023-10-19T12:03:42;95855.00;;;13.80;70.11
43741;BME280;29352;48.708;9.290;2023-10-19T12:06:11;95848.50;;;13.62;70.96
43741;BME280;29352;48.708;9.290;2023-10-19T12:08:39;95843.84;;;13.73;71.82
43741;BME280;29352;48.708;9.290;2023-10-19T12:11:07;95845.72;;;14.15;70.28
43741;BME280;29352;48.708;9.290;2023-10-19T12:13:51;95848.00;;;13.07;74.22
43741;BME280;29352;48.708;9.290;2023-10-19T12:16:16;95837.00;;;12.74;74.84
43741;BME280;29352;48.708;9.290;2023-10-19T12:18:43;95825.81;;;12.67;74.62
43741;BME280;29352;48.708;9.290;2023-10-19T12:21:09;95827.88;;;13.10;72.38
43741;BME280;29352;48.708;9.290;2023-10-19T12:23:44;95835.03;;;11.31;77.48
43741;BME280;29352;48.708;9.290;2023-10-19T12:26:09;95818.75;;;11.23;78.73
43741;BME280;29352;48.708;9.290;2023-10-19T12:28:39;95815.00;;;12.04;75.61
43741;BME280;29352;48.708;9.290;2023-10-19T12:31:07;95817.84;;;11.63;77.01
43741;BME280;29352;48.708;9.290;2023-10-19T12:33:37;95800.06;;;12.42;74.94
43741;BME280;29352;48.708;9.290;2023-10-19T12:36:07;95784.31;;;12.70;73.25
43741;BME280;29352;48.708;9.290;2023-10-19T12:38:56;95789.53;;;12.12;74.64
43741;BME280;29352;48.708;9.290;2023-10-19T12:41:23;95783.50;;;11.91;74.78
43741;BME280;29352;48.708;9.290;2023-10-19T12:43:49;95787.97;;;12.05;75.06
43741;BME280;29352;48.708;9.290;2023-10-19T12:46:17;95771.97;;;12.45;73.59
43741;BME280;29352;48.708;9.290;2023-10-19T12:48:44;95775.53;;;12.30;74.39
43741;BME280;29352;48.708;9.290;2023-10-19T12:51:12;95770.88;;;12.06;75.77
43741;BME280;29352;48.708;9.290;2023-10-19T12:53:38;95786.44;;;11.34;78.00
43741;BME280;29352;48.708;9.290;2023-10-19T12:56:05;95802.50;;;11.14;78.98
43741;BME280;29352;48.708;9.290;2023-10-19T12:58:32;95813.63;;;11.52;78.29
43741;BME280;29352;48.708;9.290;2023-10-19T13:00:58;95808.28;;;11.52;77.32
43741;BME280;29352;48.708;9.290;2023-10-19T13:03:24;95825.00;;;9.63;82.28
43741;BME280;29352;48.708;9.290;2023-10-19T13:05:56;95816.22;;;11.67;76.08
43741;BME280;29352;48.708;9.290;2023-10-19T13:08:23;95810.75;;;11.98;74.38
43741;BME280;29352;48.708;9.290;2023-10-19T13:10:52;95799.75;;;11.50;75.76
43741;BME280;29352;48.708;9.290;2023-10-19T13:13:19;95793.66;;;11.94;75.31
43741;BME280;29352;48.708;9.290;2023-10-19T13:15:49;95800.34;;;11.96;76.02
43741;BME280;29352;48.708;9.290;2023-10-19T13:18:15;95795.13;;;12.54;73.12
43741;BME280;29352;48.708;9.290;2023-10-19T13:20:46;95785.84;;;12.47;74.28
43741;BME280;29352;48.708;9.290;2023-10-19T13:23:14;95789.06;;;11.50;78.86
43741;BME280;29352;48.708;9.290;2023-10-19T13:25:47;95788.63;;;11.87;77.19
43741;BME280;29352;48.708;9.290;2023-10-19T13:28:20;95783.84;;;12.63;75.25
43741;BME280;29352;48.708;9.290;2023-10-19T13:33:17;95779.84;;;13.42;71.89
43741;BME280;29352;48.708;9.290;2023-10-19T13:35:45;95777.22;;;13.37;71.46
43741;BME280;29352;48.708;9.290;2023-10-19T13:38:11;95772.06;;;12.29;75.14